Terminal Aerodrome Forecast
Issued by NWS Milwaukee/Sullivan, WI

Home | Current Version | Previous Version | Text Only | Print | Product List | Glossary On
Versions: 1 2 3 4 5 6 7 8 9 10 11 12 13 14 15 16 17 18 19 20 21 22 23 24 25 26 27 28 29 30 31 32 33 34 35 36 37 38 39 40 41 42 43 44 45 46 47 48 49 50
000
FTUS43 KMKX 190250 AAA
TAFMKE
TAF AMD
KMKE 190250Z 1903/2006 06004KT P6SM BKN010
     FM190400 07005KT P6SM SCT015
     FM190600 11005KT 4SM BR SCT005
     FM190800 13005KT 3SM BR SCT003
      TEMPO 1908/1911 1SM BR
     FM191300 16007KT P6SM FEW008
     FM191500 17010KT P6SM SCT020
     FM191800 18015G22KT P6SM SCT040
     FM200400 19012KT P6SM BKN080=

USA.gov is the U.S. government's official web portal to all federal, state and local government web resources and services.